createdAt,value
2022-10-22T00:01:01.216Z,2.57
2022-10-22T00:03:29.265Z,2.73
2022-10-22T00:05:57.274Z,2.43
2022-10-22T00:08:26.579Z,2.87
2022-10-22T00:10:54.519Z,2.60
2022-10-22T00:13:23.333Z,2.40
2022-10-22T00:15:51.265Z,2.33
2022-10-22T00:18:19.195Z,2.20
2022-10-22T00:20:47.137Z,2.17
2022-10-22T00:23:15.069Z,2.33
2022-10-22T00:25:44.399Z,3.00
2022-10-22T00:28:12.496Z,2.40
2022-10-22T00:30:40.416Z,2.87
2022-10-22T00:33:08.449Z,2.60
2022-10-22T00:35:36.365Z,2.57
2022-10-22T00:38:04.316Z,2.30
2022-10-22T00:40:32.626Z,3.13
2022-10-22T00:43:01.924Z,7.33
2022-10-22T00:45:30.777Z,4.33
2022-10-22T00:48:02.836Z,3.27
2022-10-22T00:50:35.304Z,3.93
2022-10-22T00:53:04.702Z,3.07
2022-10-22T00:55:34.817Z,3.40
2022-10-22T00:58:05.118Z,3.33
2022-10-22T01:00:33.382Z,2.97
2022-10-22T01:03:01.674Z,3.07
2022-10-22T01:05:30.821Z,3.60
2022-10-22T01:07:58.966Z,3.40
2022-10-22T01:10:39.939Z,3.20
2022-10-22T01:13:27.044Z,3.40
2022-10-22T01:16:01.413Z,4.00
2022-10-22T01:18:36.981Z,3.50
2022-10-22T01:21:13.227Z,4.00
2022-10-22T01:24:04.592Z,3.17
2022-10-22T01:26:44.958Z,3.17
2022-10-22T01:29:19.549Z,2.73
2022-10-22T01:31:52.753Z,2.57
2022-10-22T01:34:21.544Z,2.87
2022-10-22T01:36:52.270Z,2.60
2022-10-22T01:39:21.513Z,3.00
2022-10-22T01:41:49.444Z,3.17
2022-10-22T01:44:29.942Z,2.73
2022-10-22T01:47:09.004Z,3.43
2022-10-22T01:49:51.474Z,2.47
2022-10-22T01:52:29.457Z,2.70
2022-10-22T01:55:13.972Z,3.47
2022-10-22T01:57:51.353Z,3.33
2022-10-22T02:00:21.315Z,2.93
2022-10-22T02:02:57.386Z,3.23
2022-10-22T02:05:33.275Z,3.43
2022-10-22T02:08:07.226Z,3.30
2022-10-22T02:10:37.623Z,3.30
2022-10-22T02:13:09.336Z,3.97
2022-10-22T02:15:40.937Z,2.27
2022-10-22T02:18:10.817Z,2.73
2022-10-22T02:20:41.824Z,2.70
2022-10-22T02:23:11.279Z,2.57
2022-10-22T02:25:42.708Z,2.97
2022-10-22T02:28:20.387Z,3.03
2022-10-22T02:30:53.942Z,2.93
2022-10-22T02:33:25.519Z,2.57
2022-10-22T02:35:54.127Z,2.50
2022-10-22T02:38:22.893Z,2.87
2022-10-22T02:40:51.056Z,2.10
2022-10-22T02:43:19.421Z,2.57
2022-10-22T02:45:49.047Z,1.87
2022-10-22T02:48:16.909Z,2.30
2022-10-22T02:50:44.871Z,2.57
2022-10-22T02:53:12.787Z,2.27
2022-10-22T02:55:40.696Z,1.90
2022-10-22T02:58:08.573Z,1.67
2022-10-22T03:00:36.578Z,1.40
2022-10-22T03:03:05.898Z,3.00
2022-10-22T03:05:33.807Z,1.67
2022-10-22T03:08:01.707Z,1.97
2022-10-22T03:10:29.630Z,1.93
2022-10-22T03:12:57.708Z,1.60
2022-10-22T03:15:25.678Z,1.60
2022-10-22T03:17:53.596Z,1.17
2022-10-22T03:20:22.998Z,1.00
2022-10-22T03:22:50.990Z,1.20
2022-10-22T03:25:22.211Z,1.30
2022-10-22T03:27:53.475Z,1.57
2022-10-22T03:30:21.531Z,1.60
2022-10-22T03:32:49.435Z,1.70
2022-10-22T03:35:17.523Z,1.53
2022-10-22T03:37:46.783Z,1.33
2022-10-22T03:40:15.114Z,1.30
2022-10-22T03:42:43.672Z,1.50
2022-10-22T03:45:12.255Z,1.63
2022-10-22T03:47:40.476Z,1.50
2022-10-22T03:50:09.835Z,1.57
2022-10-22T03:52:38.745Z,1.70
2022-10-22T03:55:09.361Z,1.60
2022-10-22T03:57:37.577Z,1.47
2022-10-22T04:00:07.527Z,1.50
2022-10-22T04:02:35.391Z,1.27
2022-10-22T04:05:03.444Z,1.70
2022-10-22T04:07:31.472Z,2.10
2022-10-22T04:09:59.515Z,1.50
2022-10-22T04:12:28.847Z,1.90
2022-10-22T04:14:56.742Z,1.40
2022-10-22T04:17:24.870Z,2.27
2022-10-22T04:19:52.769Z,1.80
2022-10-22T04:22:20.747Z,1.77
2022-10-22T04:24:48.669Z,1.70
2022-10-22T04:27:16.617Z,1.60
2022-10-22T04:29:45.856Z,2.33
2022-10-22T04:32:13.837Z,1.43
2022-10-22T04:34:41.880Z,2.10
2022-10-22T04:37:09.821Z,2.00
2022-10-22T04:39:37.713Z,2.20
2022-10-22T04:42:06.106Z,1.90
2022-10-22T04:44:34.206Z,2.00
2022-10-22T04:47:03.492Z,2.27
2022-10-22T04:49:31.415Z,2.20
2022-10-22T04:51:59.312Z,1.77
2022-10-22T04:54:30.495Z,1.60
2022-10-22T04:57:01.242Z,2.20
2022-10-22T04:59:29.122Z,1.90
2022-10-22T05:01:57.098Z,1.83
2022-10-22T05:04:26.362Z,2.10
2022-10-22T05:06:54.346Z,2.63
2022-10-22T05:09:22.703Z,2.10
2022-10-22T05:11:52.116Z,1.67
2022-10-22T05:14:22.514Z,2.00
2022-10-22T05:16:50.579Z,2.17
2022-10-22T05:19:20.651Z,1.97
2022-10-22T05:21:49.904Z,1.80
2022-10-22T05:24:17.909Z,1.73
2022-10-22T05:26:45.884Z,2.20
2022-10-22T05:29:14.448Z,1.70
2022-10-22T05:31:42.453Z,1.87
2022-10-22T05:34:10.413Z,1.70
2022-10-22T05:36:38.368Z,2.00
2022-10-22T05:39:07.888Z,1.93
2022-10-22T05:41:36.819Z,1.73
2022-10-22T05:44:05.689Z,2.40
2022-10-22T05:46:36.142Z,1.57
2022-10-22T05:49:06.848Z,1.90
2022-10-22T05:51:37.206Z,1.70
2022-10-22T05:54:10.932Z,1.63
2022-10-22T05:56:39.789Z,1.83
2022-10-22T05:59:07.725Z,1.83
2022-10-22T06:01:36.344Z,1.60
2022-10-22T06:04:07.466Z,1.57
2022-10-22T06:06:38.129Z,2.00
2022-10-22T06:09:13.676Z,1.57
2022-10-22T06:11:41.756Z,1.30
2022-10-22T06:14:10.688Z,1.50
2022-10-22T06:16:38.869Z,1.60
2022-10-22T06:19:06.891Z,1.80
2022-10-22T06:21:34.883Z,1.50
2022-10-22T06:24:03.118Z,1.60
2022-10-22T06:26:32.733Z,2.13
2022-10-22T06:29:01.300Z,1.33
2022-10-22T06:31:36.462Z,1.70
2022-10-22T06:34:04.462Z,1.90
2022-10-22T06:36:32.528Z,1.80
2022-10-22T06:39:00.515Z,1.43
2022-10-22T06:41:28.808Z,1.50
2022-10-22T06:43:59.979Z,1.70
2022-10-22T06:46:28.280Z,1.60
2022-10-22T06:48:57.825Z,1.50
2022-10-22T06:51:27.043Z,1.77
2022-10-22T06:53:55.604Z,1.60
2022-10-22T06:56:25.941Z,1.80
2022-10-22T06:58:55.709Z,1.50
2022-10-22T07:01:27.234Z,1.50
2022-10-22T07:03:55.654Z,1.37
2022-10-22T07:06:25.543Z,1.83
2022-10-22T07:08:54.749Z,1.47
2022-10-22T07:11:25.315Z,1.20
2022-10-22T07:13:55.536Z,1.40
2022-10-22T07:16:29.542Z,1.33
2022-10-22T07:19:00.077Z,1.23
2022-10-22T07:21:28.302Z,1.40
2022-10-22T07:23:56.546Z,1.23
2022-10-22T07:26:25.388Z,1.23
2022-10-22T07:28:53.524Z,1.33
2022-10-22T07:31:21.565Z,1.70
2022-10-22T07:33:50.955Z,1.17
2022-10-22T07:36:19.103Z,1.40
2022-10-22T07:38:47.721Z,1.50
2022-10-22T07:41:16.891Z,1.30
2022-10-22T07:43:45.193Z,1.23
2022-10-22T07:46:13.466Z,1.20
2022-10-22T07:48:41.357Z,1.50
2022-10-22T07:51:10.720Z,1.30
2022-10-22T07:53:39.119Z,1.23
2022-10-22T07:56:07.738Z,1.20
2022-10-22T07:58:36.128Z,1.37
2022-10-22T08:01:06.396Z,1.40
2022-10-22T08:03:35.095Z,1.23
2022-10-22T08:06:03.222Z,1.17
2022-10-22T08:08:33.395Z,1.30
2022-10-22T08:11:02.436Z,1.50
2022-10-22T08:13:31.465Z,1.20
2022-10-22T08:16:00.250Z,1.47
2022-10-22T08:18:28.450Z,1.37
2022-10-22T08:20:56.642Z,1.33
2022-10-22T08:23:26.185Z,1.13
2022-10-22T08:25:58.431Z,1.10
2022-10-22T08:28:28.486Z,0.87
2022-10-22T08:30:56.467Z,0.90
2022-10-22T08:33:24.386Z,0.80
2022-10-22T08:35:53.369Z,0.67
2022-10-22T08:38:21.679Z,1.10
2022-10-22T08:40:52.601Z,0.90
2022-10-22T08:44:04.997Z,1.10
2022-10-22T08:46:57.069Z,1.10
2022-10-22T08:49:29.546Z,0.93
2022-10-22T08:51:59.504Z,1.10
2022-10-22T08:54:37.581Z,0.97
2022-10-22T08:57:23.743Z,0.80
2022-10-22T08:59:59.746Z,1.10
2022-10-22T09:02:38.511Z,0.93
2022-10-22T09:05:21.893Z,1.70
2022-10-22T09:07:50.976Z,1.10
2022-10-22T09:10:20.342Z,0.97
2022-10-22T09:12:49.406Z,1.17
2022-10-22T09:15:20.577Z,1.30
2022-10-22T09:18:02.018Z,1.23
2022-10-22T09:20:39.653Z,0.97
2022-10-22T09:23:24.409Z,0.97
2022-10-22T09:25:53.363Z,1.00
2022-10-22T09:28:21.925Z,0.90
2022-10-22T09:30:51.348Z,1.10
2022-10-22T09:33:24.890Z,1.00
2022-10-22T09:35:54.563Z,1.03
2022-10-22T09:38:26.998Z,1.37
2022-10-22T09:40:57.343Z,1.00
2022-10-22T09:43:25.526Z,0.90
2022-10-22T09:45:59.748Z,1.37
2022-10-22T09:48:32.121Z,0.80
2022-10-22T09:51:05.782Z,0.93
2022-10-22T09:53:38.613Z,0.77
2022-10-22T09:56:10.786Z,1.03
2022-10-22T09:58:49.171Z,0.80
2022-10-22T10:01:20.968Z,1.30
2022-10-22T10:03:50.253Z,0.90
2022-10-22T10:06:22.856Z,1.07
2022-10-22T10:08:51.431Z,1.40
2022-10-22T10:11:29.552Z,0.80
2022-10-22T10:14:12.243Z,0.80
2022-10-22T10:16:58.364Z,0.83
2022-10-22T10:19:43.127Z,1.00
2022-10-22T10:22:21.789Z,0.83
2022-10-22T10:25:05.030Z,0.60
2022-10-22T10:27:38.703Z,0.87
2022-10-22T10:30:13.824Z,0.63
2022-10-22T10:33:03.089Z,0.60
2022-10-22T10:35:40.220Z,0.93
2022-10-22T10:38:24.768Z,2.80
2022-10-22T10:41:03.116Z,3.07
2022-10-22T10:43:39.635Z,12.03
2022-10-22T10:48:57.251Z,2.93
2022-10-22T10:51:37.920Z,1.37
2022-10-22T10:54:28.439Z,1.30
2022-10-22T10:56:59.313Z,1.20
2022-10-22T10:59:41.884Z,1.53
2022-10-22T11:02:30.376Z,1.30
2022-10-22T11:05:19.336Z,1.00
2022-10-22T11:07:55.711Z,1.10
2022-10-22T11:10:30.361Z,1.00
2022-10-22T11:13:04.432Z,1.03
2022-10-22T11:15:35.035Z,1.17
2022-10-22T11:18:11.784Z,2.60
2022-10-22T11:20:51.562Z,2.00
2022-10-22T11:23:25.782Z,1.87
2022-10-22T11:25:53.858Z,0.93
2022-10-22T11:28:27.026Z,1.33
2022-10-22T11:31:02.467Z,1.00
2022-10-22T11:33:38.588Z,0.90
2022-10-22T11:36:09.407Z,0.80
2022-10-22T11:38:38.212Z,5.07
2022-10-22T11:41:10.568Z,1.40
2022-10-22T11:43:57.470Z,1.20
2022-10-22T11:46:36.574Z,1.43
2022-10-22T11:49:17.331Z,1.00
2022-10-22T11:51:47.573Z,1.10
2022-10-22T11:54:48.711Z,1.30
2022-10-22T11:57:27.431Z,1.10
2022-10-22T11:59:59.316Z,4.23
2022-10-22T12:02:42.045Z,3.30
2022-10-22T12:05:37.297Z,3.07
2022-10-22T12:08:18.533Z,1.53
2022-10-22T12:11:05.793Z,1.70
2022-10-22T12:13:51.748Z,2.23
2022-10-22T12:16:32.209Z,1.43
2022-10-22T12:19:16.471Z,2.20
2022-10-22T12:21:49.479Z,1.37
2022-10-22T12:24:22.831Z,5.87
2022-10-22T12:26:52.646Z,2.07
2022-10-22T12:29:25.547Z,2.00
2022-10-22T12:31:54.004Z,2.03
2022-10-22T12:34:25.528Z,1.20
2022-10-22T12:36:55.372Z,2.60
2022-10-22T12:39:28.033Z,1.20
2022-10-22T12:41:56.204Z,1.57
2022-10-22T12:44:24.143Z,1.20
2022-10-22T12:46:55.996Z,1.43
2022-10-22T12:49:34.242Z,3.43
2022-10-22T12:52:05.248Z,1.83
2022-10-22T12:54:35.936Z,2.30
2022-10-22T12:57:04.054Z,1.60
2022-10-22T12:59:35.693Z,1.33
2022-10-22T13:02:09.042Z,1.30
2022-10-22T13:04:39.829Z,2.20
2022-10-22T13:07:19.962Z,1.33
2022-10-22T13:09:59.927Z,0.80
2022-10-22T13:12:29.070Z,1.10
2022-10-22T13:14:56.944Z,0.97
2022-10-22T13:17:40.985Z,0.77
2022-10-22T13:20:19.514Z,1.10
2022-10-22T13:23:06.186Z,0.90
2022-10-22T13:25:37.283Z,0.80
2022-10-22T13:28:21.878Z,1.10
2022-10-22T13:30:54.497Z,1.00
2022-10-22T13:33:26.595Z,1.23
2022-10-22T13:35:56.108Z,1.57
2022-10-22T13:38:25.734Z,0.77
2022-10-22T13:40:55.879Z,0.70
2022-10-22T13:43:25.089Z,1.50
2022-10-22T13:45:56.455Z,1.00
2022-10-22T13:48:26.397Z,0.87
2022-10-22T13:50:54.822Z,1.07
2022-10-22T13:53:24.902Z,1.10
2022-10-22T13:55:54.577Z,1.43
2022-10-22T13:58:25.121Z,1.37
2022-10-22T14:00:55.582Z,0.87
2022-10-22T14:03:26.937Z,0.90
2022-10-22T14:05:55.193Z,1.07
2022-10-22T14:08:25.756Z,1.07
2022-10-22T14:10:55.587Z,1.10
2022-10-22T14:13:23.580Z,1.00
2022-10-22T14:15:53.156Z,0.90
2022-10-22T14:18:26.542Z,0.90
2022-10-22T14:20:57.148Z,1.00
2022-10-22T14:23:27.812Z,1.47
2022-10-22T14:25:58.117Z,0.80
2022-10-22T14:28:26.058Z,1.37
2022-10-22T14:30:54.698Z,1.20
2022-10-22T14:33:28.904Z,1.10
2022-10-22T14:36:00.338Z,1.13
2022-10-22T14:38:28.821Z,1.00
2022-10-22T14:40:58.837Z,1.20
2022-10-22T14:43:28.620Z,1.40
2022-10-22T14:45:56.767Z,1.20
2022-10-22T14:48:24.795Z,1.10
2022-10-22T14:50:52.959Z,1.00
2022-10-22T14:53:20.907Z,1.00
2022-10-22T14:55:49.201Z,0.83
2022-10-22T14:58:18.615Z,1.10
2022-10-22T15:00:46.608Z,1.30
2022-10-22T15:03:14.530Z,1.03
2022-10-22T15:05:44.283Z,1.13
2022-10-22T15:08:13.880Z,1.30
2022-10-22T15:10:41.826Z,1.00
2022-10-22T15:13:10.115Z,1.07
2022-10-22T15:15:41.249Z,1.30
2022-10-22T15:18:09.233Z,1.00
2022-10-22T15:20:37.179Z,1.27
2022-10-22T15:23:05.219Z,1.27
2022-10-22T15:25:33.174Z,1.13
2022-10-22T15:28:09.207Z,1.00
2022-10-22T15:30:39.333Z,0.90
2022-10-22T15:33:07.388Z,0.90
2022-10-22T15:35:35.347Z,0.80
2022-10-22T15:38:06.363Z,1.37
2022-10-22T15:40:34.358Z,1.10
2022-10-22T15:43:02.322Z,1.57
2022-10-22T15:45:30.280Z,1.40
2022-10-22T15:47:59.556Z,1.17
2022-10-22T15:50:27.712Z,1.63
2022-10-22T15:52:55.753Z,1.00
2022-10-22T15:55:23.827Z,1.13
2022-10-22T15:57:57.964Z,1.23
2022-10-22T16:00:27.358Z,1.03
2022-10-22T16:02:55.682Z,1.10
2022-10-22T16:05:25.005Z,1.57
2022-10-22T16:07:55.687Z,0.80
2022-10-22T16:10:24.373Z,1.60
2022-10-22T16:12:54.515Z,1.13
2022-10-22T16:15:22.421Z,1.17
2022-10-22T16:17:52.437Z,1.13
2022-10-22T16:20:20.384Z,1.53
2022-10-22T16:22:51.825Z,2.07
2022-10-22T16:25:19.745Z,2.10
2022-10-22T16:27:50.471Z,2.10
2022-10-22T16:30:18.712Z,2.10
2022-10-22T16:32:46.615Z,2.90
2022-10-22T16:35:14.624Z,6.80
2022-10-22T16:37:42.702Z,6.60
2022-10-22T16:40:13.705Z,6.10
2022-10-22T16:42:42.112Z,6.40
2022-10-22T16:45:10.991Z,13.03
2022-10-22T16:47:40.267Z,7.27
2022-10-22T16:50:09.570Z,6.60
2022-10-22T16:52:37.511Z,4.90
2022-10-22T16:55:06.117Z,4.30
2022-10-22T16:57:35.922Z,4.73
2022-10-22T17:00:05.632Z,5.03
2022-10-22T17:02:35.188Z,5.50
2022-10-22T17:05:03.089Z,3.70
2022-10-22T17:07:31.003Z,5.77
2022-10-22T17:09:58.950Z,6.60
2022-10-22T17:12:26.833Z,6.47
2022-10-22T17:14:56.090Z,5.70
2022-10-22T17:17:24.058Z,17.00
2022-10-22T17:19:52.009Z,14.63
2022-10-22T17:22:19.924Z,11.53
2022-10-22T17:24:48.050Z,9.20
2022-10-22T17:27:16.069Z,12.50
2022-10-22T17:29:43.958Z,9.13
2022-10-22T17:32:13.353Z,7.70
2022-10-22T17:34:41.246Z,8.93
2022-10-22T17:37:09.117Z,11.33
2022-10-22T17:39:37.218Z,22.77
2022-10-22T17:42:05.208Z,15.67
2022-10-22T17:44:33.123Z,9.03
2022-10-22T17:47:01.721Z,8.37
2022-10-22T17:49:31.336Z,6.60
2022-10-22T17:54:32.184Z,6.10
2022-10-22T17:57:00.247Z,4.70
2022-10-22T17:59:28.431Z,6.27
2022-10-22T18:01:59.460Z,8.07
2022-10-22T18:04:28.181Z,11.90
2022-10-22T18:06:57.650Z,11.17
2022-10-22T18:09:26.248Z,11.27
2022-10-22T18:11:55.648Z,11.13
2022-10-22T18:14:24.609Z,16.63
2022-10-22T18:16:54.483Z,18.03
2022-10-22T18:19:24.570Z,13.23
2022-10-22T18:21:52.486Z,14.03
2022-10-22T18:24:21.749Z,9.20
2022-10-22T18:26:49.864Z,9.37
2022-10-22T18:29:20.340Z,6.57
2022-10-22T18:31:48.976Z,15.27
2022-10-22T18:34:20.230Z,11.17
2022-10-22T18:36:51.002Z,10.57
2022-10-22T18:39:19.480Z,12.67
2022-10-22T18:41:48.900Z,7.53
2022-10-22T18:44:17.889Z,7.60
2022-10-22T18:46:45.881Z,7.03
2022-10-22T18:49:18.162Z,12.40
2022-10-22T18:51:48.560Z,13.97
2022-10-22T18:54:23.064Z,9.73
2022-10-22T18:56:53.634Z,9.57
2022-10-22T18:59:23.968Z,7.60
2022-10-22T19:01:52.937Z,7.00
2022-10-22T19:04:21.048Z,6.07
2022-10-22T19:06:48.959Z,5.13
2022-10-22T19:09:17.734Z,5.73
2022-10-22T19:11:46.669Z,7.50
2022-10-22T19:14:19.347Z,11.27
2022-10-22T19:16:47.614Z,12.00
2022-10-22T19:19:18.090Z,11.10
2022-10-22T19:21:46.343Z,7.90
2022-10-22T19:24:16.123Z,9.53
2022-10-22T19:26:44.598Z,9.47
2022-10-22T19:29:12.568Z,17.30
2022-10-22T19:31:41.856Z,24.33
2022-10-22T19:34:10.959Z,30.70
2022-10-22T19:36:38.876Z,33.30
2022-10-22T19:39:07.652Z,27.30
2022-10-22T19:41:36.290Z,25.97
2022-10-22T19:44:04.577Z,27.80
2022-10-22T19:46:32.752Z,22.23
2022-10-22T19:49:03.418Z,22.07
2022-10-22T19:51:33.461Z,20.50
2022-10-22T19:54:02.885Z,23.40
2022-10-22T19:56:31.502Z,24.70
2022-10-22T19:59:00.110Z,22.43
2022-10-22T20:01:28.554Z,23.30
2022-10-22T20:03:56.491Z,23.77
2022-10-22T20:06:25.788Z,20.00
2022-10-22T20:08:56.096Z,19.83
2022-10-22T20:11:27.038Z,19.13
2022-10-22T20:13:55.135Z,19.03
2022-10-22T20:16:24.530Z,20.13
2022-10-22T20:18:53.090Z,21.03
2022-10-22T20:21:21.969Z,20.67
2022-10-22T20:23:53.591Z,20.60
2022-10-22T20:26:23.395Z,20.07
2022-10-22T20:28:51.546Z,17.63
2022-10-22T20:31:21.358Z,16.33
2022-10-22T20:33:50.362Z,17.60
2022-10-22T20:36:20.492Z,17.60
2022-10-22T20:38:48.871Z,18.90
2022-10-22T20:41:20.038Z,17.70
2022-10-22T20:43:49.078Z,15.80
2022-10-22T20:46:19.754Z,16.97
2022-10-22T20:48:47.913Z,17.20
2022-10-22T20:51:15.844Z,15.20
2022-10-22T20:53:43.756Z,15.57
2022-10-22T20:56:12.293Z,15.23
2022-10-22T20:58:47.601Z,15.67
2022-10-22T21:01:21.353Z,16.70
2022-10-22T21:03:49.890Z,14.83
2022-10-22T21:06:18.050Z,14.87
2022-10-22T21:08:46.003Z,13.77
2022-10-22T21:11:13.923Z,12.90
2022-10-22T21:13:43.187Z,12.03
2022-10-22T21:16:12.521Z,12.30
2022-10-22T21:18:40.592Z,9.57
2022-10-22T21:21:09.136Z,8.80
2022-10-22T21:23:37.813Z,10.00
2022-10-22T21:26:06.857Z,11.50
2022-10-22T21:28:35.970Z,11.90
2022-10-22T21:31:07.120Z,12.07
2022-10-22T21:33:37.690Z,14.17
2022-10-22T21:36:07.224Z,14.37
2022-10-22T21:38:37.033Z,14.33
2022-10-22T21:41:10.414Z,14.20
2022-10-22T21:43:39.483Z,16.13
2022-10-22T21:46:11.130Z,14.20
2022-10-22T21:48:40.378Z,10.80
2022-10-22T21:51:10.347Z,10.37
2022-10-22T21:53:39.132Z,8.87
2022-10-22T21:56:08.811Z,7.53
2022-10-22T21:58:36.895Z,7.60
2022-10-22T22:01:05.433Z,8.90
2022-10-22T22:03:34.822Z,8.77
2022-10-22T22:06:04.492Z,8.60
2022-10-22T22:08:34.074Z,8.57
2022-10-22T22:11:03.162Z,8.30
2022-10-22T22:13:31.172Z,7.93
2022-10-22T22:16:02.478Z,7.13
2022-10-22T22:18:30.741Z,8.40
2022-10-22T22:21:00.793Z,8.47
2022-10-22T22:23:28.684Z,8.17
2022-10-22T22:26:00.017Z,6.80
2022-10-22T22:28:29.532Z,6.60
2022-10-22T22:30:57.860Z,6.30
2022-10-22T22:33:25.801Z,6.47
2022-10-22T22:35:54.350Z,6.27
2022-10-22T22:38:23.646Z,5.67
2022-10-22T22:40:51.570Z,6.00
2022-10-22T22:43:19.494Z,6.03
2022-10-22T22:45:47.409Z,6.93
2022-10-22T22:48:15.748Z,6.87
2022-10-22T22:50:43.680Z,6.53
2022-10-22T22:53:11.664Z,8.00
2022-10-22T22:55:40.920Z,6.87
2022-10-22T22:58:08.815Z,7.07
2022-10-22T23:00:36.751Z,6.70
2022-10-22T23:03:05.356Z,5.77
2022-10-22T23:05:33.469Z,6.30
2022-10-22T23:08:01.365Z,6.00
2022-10-22T23:10:29.270Z,5.90
2022-10-22T23:12:58.555Z,6.00
2022-10-22T23:15:26.425Z,5.70
2022-10-22T23:17:54.363Z,5.80
2022-10-22T23:20:22.350Z,6.80
2022-10-22T23:22:50.262Z,6.73
2022-10-22T23:25:18.148Z,6.77
2022-10-22T23:27:46.043Z,7.00
2022-10-22T23:30:16.247Z,6.10
2022-10-22T23:32:44.164Z,7.33
2022-10-22T23:35:12.084Z,6.50
2022-10-22T23:37:40.257Z,6.93
2022-10-22T23:40:09.450Z,6.47
2022-10-22T23:45:10.844Z,8.00
2022-10-22T23:47:40.422Z,7.00
2022-10-22T23:50:09.272Z,7.50
2022-10-22T23:52:37.295Z,8.20
2022-10-22T23:55:05.761Z,8.40
2022-10-22T23:57:33.658Z,8.23
